Portada
METAR-TAF:

METAR-TAF

Aeropuertos :

Aeropuerto de Sion

Sion, Suiza

latitud: 46-13N, longitud: 007-20E, altitud: 482 m

Observación

El informe se hizo hace 20 minutos, a las 17:50 UTC
Viento 3 kt del oeste-suroeste, variando entre sur y norte
Temperatura 3°C
Humedad 75%
Presión 989 hPa
Visibilidad 10 km o más
Nubes dispersas a una altura de 7000 ft
Nubes dispersas a una altura de 10000 ft

METAR: LSGS 041750Z 25003KT 190V360 9999 SCT070 SCT100 03/M01 Q0989

Hora: 19:10 (18:10 UTC)

Pronóstico

El informe se hizo hace 3 horas y 45 minutos, a las 14:25 UTC
Pronóstico válido del 04 a las 15 UTC al 04 a las 24 UTC
Viento 13 kt del este
Visibilidad 10 km o más
Nubes dispersas a una altura de 6000 ft
Cielo cubierto a una altura de 8000 ft
Evolucionando progresivamente
del 04 a las 18 UTC al 04 a las 21 UTC
Viento 3 kt con dirección variable

TAF: LSGS 041425Z 0415/0424 09013KT 9999 SCT060 OVC080 BECMG 0418/0421 VRB03KT

Observaciones y pronósticos meteorológicos de más de 4000 aeropuertos (mensajes METAR y TAF).

Los puntos amarillos y rojos representan las estaciones disponibles.

Ponga el ratón en el punto deseado para ver el nombre de la estación.

Haga clic para ver las observaciones y los pronósticos meteorológicos.

Para cambiar el mapa : haga clic en los botones verdes con una cruz de color negro para hacer un zoom, en el botón verde con un guión para alejar o en las flechas verdes para mapas adyacentes.


METAR-TAF: